• Join FlightAware (Why Join?)
  • Login
  • US Flag 
12:00AM EDT


 

Airport Tracker/Info


-or-


 

Live Flight TrackerFlight Track Log ✈ QJE1948 ✈ 21-Jul-2013 ✈ YBAS / ASP - YBCS / CNS

Flight Track Log - Related Links

Times and Time Zones

All times are in EDT time to prevent confusion due to time zone crossing. See the QJE1948 flight status page for this flight to view local times or setup timezone preferences in your user account.

Time Position Orientation Groundspeed Altitude Reporting Facility
EDT Latitude Longitude Course Direction KTS MPH feet Rate Location/Type
04:08AM -23.8030 133.9010 239° Southwest 24 28  Level FlightAware
04:08AM -23.8040 133.9010 180° South 25 29 1,140 Level FlightAware
04:08AM -23.8040 133.9000 270° West 27 31 1,140 Level FlightAware
04:09AM -23.8040 133.8980 270° West 21 24 1,260 Level FlightAware
04:09AM -23.8020 133.8960 318° Northwest 21 24 1,380 Level FlightAware
04:09AM -23.8010 133.8930 290° West 23 26 1,500 Level FlightAware
04:10AM -23.8010 133.8940 90° East 9 10 1,680 Level FlightAware
04:10AM -23.8040 133.8990 123° Southeast 100 115 1,920 Level FlightAware
04:11AM -23.7604 133.9395 60° Northeast 33,000 2,220 Climbing Aus ATC (Calculated)
04:12AM -23.7280 134.0007 58° Northeast 33,000 -10,680 Level Aus ATC (Calculated)
04:13AM -23.7250 134.0060 123° Southeast 271 312 6,600 -12,300 Descending FlightAware
04:14AM -23.6960 134.0600 60° Northeast 294 338 8,500 3,360 Climbing FlightAware
04:14AM -23.6800 134.0920 61° Northeast 302 348 9,600 2,100 Climbing FlightAware
04:15AM -23.5334 134.3674 240° Southwest 33,000 1,740 Climbing Aus ATC (Calculated)
04:15AM -23.6480 134.1520 61° Northeast 338 389 10,900 -25,860 Descending FlightAware
04:15AM -23.5009 134.4285 240° Southwest 33,000 1,440 Climbing Aus ATC (Calculated)
04:16AM -23.6140 134.2160 60° Northeast 378 435 11,900 -21,000 Descending FlightAware
04:16AM -23.5009 134.4285 240° Southwest 33,000 2,700 Climbing Aus ATC (Calculated)
04:16AM -23.5760 134.2890 60° Northeast 388 447 13,800 -14,160 Descending FlightAware
04:17AM -23.5360 134.3630 59° Northeast 398 458 15,600 2,340 Climbing FlightAware
04:18AM -23.4990 134.4320 60° Northeast 411 473 17,100 2,220 Climbing FlightAware
04:18AM -23.3705 134.6723 240° Southwest 33,000 2,220 Climbing Aus ATC (Calculated)
04:18AM -23.4590 134.5070 60° Northeast 419 482 18,600 -10,680 Descending FlightAware
04:19AM -23.3379 134.7331 240° Southwest 33,000 1,620 Climbing Aus ATC (Calculated)
04:19AM -23.4190 134.5810 60° Northeast 438 504 19,700 -9,540 Descending FlightAware
04:20AM -23.3750 134.6640 60° Northeast 452 520 21,100 1,800 Climbing FlightAware
04:20AM -23.2725 134.8548 240° Southwest 33,000 1,800 Climbing Aus ATC (Calculated)
04:20AM -23.3320 134.7440 60° Northeast 458 527 22,300 -7,920 Descending FlightAware
04:20AM -23.2071 134.9763 240° Southwest 33,000 1,680 Climbing Aus ATC (Calculated)
04:21AM -23.2920 134.8190 60° Northeast 470 541 23,300 -6,540 Descending FlightAware
04:21AM -23.1743 135.0370 240° Southwest 33,000 1,560 Climbing Aus ATC (Calculated)
04:22AM -23.2420 134.9110 59° Northeast 480 552 24,500 -5,880 Descending FlightAware
04:22AM -23.1930 135.0010 59° Northeast 491 565 25,400 1,440 Climbing FlightAware
04:23AM -23.1430 135.0950 60° Northeast 492 566 26,600 1,500 Climbing FlightAware
04:24AM -23.0102 135.3402 239° Southwest 33,000 1,380 Climbing Aus ATC (Calculated)
04:24AM -23.0970 135.1800 60° Northeast 497 572 27,500 -5,880 Descending FlightAware
04:24AM -22.9773 135.4008 240° Southwest 33,000 1,140 Climbing Aus ATC (Calculated)
04:25AM -23.0500 135.2660 60° Northeast 502 578 28,300 -6,000 Descending FlightAware
04:25AM -23.0090 135.3400 60° Northeast 500 575 29,200 1,320 Climbing FlightAware
04:26AM -22.9560 135.4390 60° Northeast 499 574 30,100 1,020 Climbing FlightAware
04:27AM -22.9090 135.5260 60° Northeast 504 580 30,700 960 Climbing FlightAware
04:27AM -22.8670 135.6020 59° Northeast 506 582 31,300 1,080 Climbing FlightAware
04:27AM -22.8124 135.7031 350° North 33,000 1,140 Climbing Aus ATC (Calculated)
04:28AM -22.8120 135.7030 59° Northeast 506 582 32,200 -360 Descending FlightAware
04:29AM -22.7630 135.7930 59° Northeast 515 593 32,600 600 Climbing FlightAware
04:29AM -22.7184 135.8747 57° Northeast 33,000 600 Climbing Aus ATC (Calculated)
04:29AM -22.7184 135.8747 57° Northeast 33,000  Level Aus ATC (Calculated)
04:29AM -22.7170 135.8770 59° Northeast 515 593 33,000  Level FlightAware
04:30AM -22.6620 135.9760 59° Northeast 511 588 33,000  Level FlightAware
04:31AM -22.6170 136.0580 59° Northeast 507 583 33,000  Level FlightAware
04:31AM -22.5700 136.1440 59° Northeast 505 581 33,000  Level FlightAware
04:32AM -22.5224 136.2303 53° Northeast 33,000  Level Aus ATC (Calculated)
04:32AM -22.5190 136.2350 59° Northeast 504 580 33,000  Level FlightAware
04:33AM -22.4700 136.3250 60° Northeast 504 580 33,000  Level FlightAware
04:33AM -22.4100 136.4330 240° Southwest 33,000  Level Aus ATC (Calculated)
04:33AM -22.4170 136.4200 60° Northeast 504 580 33,000  Level FlightAware
04:34AM -22.3800 136.4860 59° Northeast 505 581 33,000  Level FlightAware
04:35AM -22.3340 136.5680 59° Northeast 505 581 33,000  Level FlightAware
04:35AM -22.2974 136.6354 57° Northeast 33,000  Level Aus ATC (Calculated)
04:35AM -22.2534 136.7143 240° Southwest 33,000  Level Aus ATC (Calculated)
04:35AM -22.2840 136.6580 59° Northeast 505 581 33,000  Level FlightAware
04:36AM -22.2350 136.7460 59° Northeast 505 581 33,000  Level FlightAware
04:37AM -22.1980 136.8130 59° Northeast 505 581 33,000  Level FlightAware
04:38AM -22.1210 136.9520 59° Northeast 505 581 33,000  Level FlightAware
04:39AM -22.0720 137.0400 59° Northeast 505 581 33,000  Level FlightAware
04:39AM -22.0350 137.1060 59° Northeast 505 581 33,000  Level FlightAware
04:40AM -21.8997 137.3440 238° Southwest 33,000  Level Aus ATC (Calculated)
04:40AM -21.9860 137.1950 59° Northeast 505 581 33,000  Level FlightAware
04:41AM -21.9370 137.2830 59° Northeast 505 581 33,000  Level FlightAware
04:42AM -21.9000 137.3490 59° Northeast 505 581 33,000  Level FlightAware
04:42AM -21.8510 137.4370 59° Northeast 505 581 33,000  Level FlightAware
04:43AM -21.8140 137.5030 59° Northeast 505 581 33,000  Level FlightAware
04:44AM -21.6730 137.7430 58° Northeast 495 570 33,000  Level FlightAware
04:44AM -21.6240 137.8290 59° Northeast 494 568 33,000  Level FlightAware
04:45AM -21.5597 137.9426 239° Southwest 33,000  Level Aus ATC (Calculated)
04:45AM -21.5830 137.9010 59° Northeast 494 568 33,000  Level FlightAware
04:46AM -21.5320 137.9900 58° Northeast 493 567 33,000  Level FlightAware
04:46AM -21.4860 138.0700 58° Northeast 494 568 33,000  Level FlightAware
04:47AM -21.4390 138.1520 58° Northeast 492 566 33,000  Level FlightAware
04:48AM -21.3890 138.2400 59° Northeast 491 565 33,000  Level FlightAware
04:48AM -21.3400 138.3250 58° Northeast 489 563 33,000  Level FlightAware
04:49AM -21.2880 138.4140 58° Northeast 487 560 33,000  Level FlightAware
04:50AM -21.2380 138.5010 58° Northeast 484 557 33,000  Level FlightAware
04:50AM -21.2149 138.5421 58° Northeast 33,000  Level Aus ATC (Calculated)
04:50AM -21.1870 138.5900 58° Northeast 482 555 33,000  Level FlightAware
04:51AM -21.1410 138.6690 58° Northeast 481 554 33,000  Level FlightAware
04:52AM -21.0920 138.7530 58° Northeast 481 554 33,000  Level FlightAware
04:53AM -21.0410 138.8420 58° Northeast 482 555 33,000  Level FlightAware
04:53AM -20.9980 138.9150 58° Northeast 484 557 33,000  Level FlightAware
04:54AM -20.9500 138.9970 58° Northeast 486 559 33,000  Level FlightAware
04:55AM -20.9010 139.0820 58° Northeast 487 560 33,000  Level FlightAware
04:55AM -20.8679 139.1389 58° Northeast 33,000  Level Aus ATC (Calculated)
04:55AM -20.8460 139.1760 58° Northeast 488 562 33,000  Level FlightAware
04:56AM -20.7980 139.2580 58° Northeast 488 562 33,000  Level FlightAware
04:57AM -20.7460 139.3470 58° Northeast 488 562 33,000  Level FlightAware
04:57AM -20.7070 139.4130 58° Northeast 489 563 33,000  Level FlightAware
04:58AM -20.6302 139.5430 237° Southwest 33,000  Level Aus ATC (Calculated)
04:58AM -20.6560 139.5000 58° Northeast 489 563 33,000  Level FlightAware
04:59AM -20.6070 139.5810 58° Northeast 488 562 33,000  Level FlightAware
04:59AM -20.5510 139.6740 57° Northeast 489 563 33,000  Level FlightAware
05:00AM -20.5130 139.7360 57° Northeast 489 563 33,000  Level FlightAware
05:01AM -20.4590 139.8260 57° Northeast 489 563 33,000  Level FlightAware
05:01AM -20.4080 139.9110 57° Northeast 488 562 33,000  Level FlightAware
05:02AM -20.3530 140.0020 57° Northeast 488 562 33,000  Level FlightAware
05:03AM -20.3030 140.0830 57° Northeast 487 560 33,000  Level FlightAware
05:03AM -20.2508 140.1703 239° Southwest 33,000  Level Aus ATC (Calculated)
05:03AM -20.2550 140.1630 57° Northeast 486 559 33,000  Level FlightAware
05:04AM -20.2110 140.2350 57° Northeast 487 560 33,000  Level FlightAware
05:04AM -20.1470 140.3409 238° Southwest 33,000  Level Aus ATC (Calculated)
05:05AM -20.1690 140.3040 57° Northeast 485 558 33,000  Level FlightAware
05:05AM -20.1250 140.3750 57° Northeast 484 557 33,000  Level FlightAware
05:05AM -20.0569 140.4882 237° Southwest 33,000  Level Aus ATC (Calculated)
05:06AM -20.0720 140.4630 57° Northeast 484 557 33,000  Level FlightAware
05:07AM -20.0250 140.5390 57° Northeast 482 555 33,000  Level FlightAware
05:07AM -19.9640 140.6390 57° Northeast 483 556 33,000  Level FlightAware
05:08AM -19.9100 140.7260 57° Northeast 481 554 33,000  Level FlightAware
05:09AM -19.8610 140.8060 57° Northeast 480 552 33,000  Level FlightAware
05:09AM -19.8080 140.8920 57° Northeast 479 551 33,000  Level FlightAware
05:10AM -19.7600 140.9710 57° Northeast 478 550 33,000  Level FlightAware
05:10AM -19.6957 141.0748 57° Northeast 33,000  Level Aus ATC (Calculated)
05:11AM -19.6400 141.1649 237° Southwest 33,000  Level Aus ATC (Calculated)
05:11AM -19.6121 141.2099 237° Southwest 33,000  Level Aus ATC (Calculated)
05:11AM -19.6660 141.1230 57° Northeast 476 548 33,000  Level FlightAware
05:12AM -19.6020 141.2240 57° Northeast 475 547 33,000  Level FlightAware
05:13AM -19.5450 141.3170 57° Northeast 473 544 33,000  Level FlightAware
05:14AM -19.4920 141.4030 57° Northeast 473 544 33,000  Level FlightAware
05:15AM -19.4440 141.4800 57° Northeast 473 544 33,000  Level FlightAware
05:15AM -19.3047 141.7037 237° Southwest 33,000  Level Aus ATC (Calculated)
05:15AM -19.3810 141.5810 57° Northeast 473 544 33,000  Level FlightAware
05:16AM -19.3330 141.6580 57° Northeast 474 545 33,000  Level FlightAware
05:16AM -19.2486 141.7933 237° Southwest 33,000  Level Aus ATC (Calculated)
05:17AM -19.2860 141.7330 57° Northeast 474 545 33,000  Level FlightAware
05:17AM -19.2340 141.8150 56° Northeast 474 545 33,000  Level FlightAware
05:18AM -19.1930 141.8810 57° Northeast 474 545 33,000  Level FlightAware
05:19AM -19.1430 141.9590 56° Northeast 474 545 33,000  Level FlightAware
05:19AM -19.1050 142.0180 56° Northeast 474 545 33,000  Level FlightAware
05:20AM -19.0670 142.0790 57° Northeast 474 545 33,000  Level FlightAware
05:21AM -19.0160 142.1570 55° Northeast 474 545 33,000 60 Level FlightAware
05:22AM -18.9183 142.3131 55° Northeast 477 549 33,100  Climbing Aus ATC (RADAR)
05:22AM -18.9660 142.2350 55° Northeast 474 545 33,000  Descending FlightAware
05:22AM -18.8826 142.3721 55° Northeast 478 550 33,100  Climbing Aus ATC (RADAR)
05:22AM -18.9290 142.2940 55° Northeast 474 545 33,000 -120 Descending FlightAware
05:23AM -18.8790 142.3730 56° Northeast 474 545 33,000  Level FlightAware
05:24AM -18.8410 142.4310 55° Northeast 474 545 33,000 60 Level FlightAware
05:24AM -18.7163 142.6334 55° Northeast 477 549 33,100  Climbing Aus ATC (RADAR)
05:24AM -18.7910 142.5100 55° Northeast 474 545 33,000 -180 Descending FlightAware
05:25AM -18.7540 142.5690 56° Northeast 474 545 33,000 60 Level FlightAware
05:26AM -18.6246 142.7783 56° Northeast 476 548 33,100  Climbing Aus ATC (RADAR)
05:26AM -18.7150 142.6290 56° Northeast 474 545 33,000  Descending FlightAware
05:26AM -18.5820 142.8460 56° Northeast 476 548 33,100  Climbing Aus ATC (RADAR)
05:26AM -18.6650 142.7070 56° Northeast 474 545 33,000 -120 Descending FlightAware
05:27AM -18.6280 142.7660 57° Northeast 474 545 33,000 60 Level FlightAware
05:28AM -18.4476 143.0568 57° Northeast 472 543 33,100 60 Climbing Aus ATC (RADAR)
05:29AM -18.4054 143.1234 56° Northeast 468 539 33,100  Level Aus ATC (RADAR)
05:29AM -18.3629 143.1902 56° Northeast 471 542 33,100  Level Aus ATC (RADAR)
05:30AM -18.3201 143.2563 56° Northeast 470 541 33,100  Level Aus ATC (RADAR)
05:31AM -18.2592 143.3508 56° Northeast 468 539 33,100  Level Aus ATC (RADAR)
05:32AM -18.1988 143.4453 56° Northeast 469 540 33,100  Level Aus ATC (RADAR)
05:32AM -18.1385 143.5393 56° Northeast 466 536 33,100 -120 Level Aus ATC (RADAR)
05:32AM -18.1350 143.5470 56° Northeast 466 536 33,000  Descending FlightAware
05:33AM -18.0965 143.6049 56° Northeast 463 533 33,100  Climbing Aus ATC (RADAR)
05:33AM -18.0940 143.6110 56° Northeast 463 533 33,000 -180 Descending FlightAware
05:34AM -18.0490 143.6800 56° Northeast 462 532 33,000 120 Level FlightAware
05:34AM -18.0429 143.6888 56° Northeast 460 529 33,100  Climbing Aus ATC (RADAR)
05:34AM -17.9900 143.7720 56° Northeast 463 533 33,000 -120 Descending FlightAware
05:35AM -17.9410 143.8470 56° Northeast 464 534 33,000 60 Level FlightAware
05:36AM -17.8860 143.9308 56° Northeast 464 534 33,100  Climbing Aus ATC (RADAR)
05:36AM -17.8870 143.9310 56° Northeast 466 536 33,000  Descending FlightAware
05:36AM -17.8435 143.9960 56° Northeast 464 534 33,100  Climbing Aus ATC (RADAR)
05:37AM -17.8320 144.0130 56° Northeast 466 536 33,000 -120 Descending FlightAware
05:37AM -17.8340 144.0120 205° Southwest 466 536 33,000  Level FlightAware
05:38AM -17.7300 144.1720 56° Northeast 467 537 33,000 60 Level FlightAware
05:39AM -17.6732 144.2576 56° Northeast 466 536 33,100  Climbing Aus ATC (RADAR)
05:39AM -17.6730 144.2600 56° Northeast 467 537 33,000  Descending FlightAware
05:39AM -17.6310 144.3234 56° Northeast 465 535 33,100  Climbing Aus ATC (RADAR)
05:39AM -17.6310 144.3250 56° Northeast 466 536 33,000  Descending FlightAware
05:40AM -17.5885 144.3886 56° Northeast 464 534 33,100  Climbing Aus ATC (RADAR)
05:41AM -17.5490 144.4500 56° Northeast 464 534 33,000  Descending FlightAware
05:41AM -17.5341 144.4719 56° Northeast 462 532 33,100 -180 Climbing Aus ATC (RADAR)
05:41AM -17.4917 144.5366 56° Northeast 460 529 32,900 -840 Descending Aus ATC (RADAR)
05:41AM -17.4900 144.5400 56° Northeast 461 531 32,600 -2,760 Descending FlightAware
05:42AM -17.4495 144.6007 56° Northeast 456 525 31,300 -2,820 Descending Aus ATC (RADAR)
05:42AM -17.4360 144.6230 56° Northeast 461 531 30,500 -3,240 Descending FlightAware
05:43AM -17.3880 144.6970 56° Northeast 460 529 28,500 -2,700 Descending FlightAware
05:43AM -17.3420 144.7670 55° Northeast 453 521 26,900 -2,580 Descending FlightAware
05:44AM -17.2899 144.8461 55° Northeast 438 504 25,000 -2,580 Descending Aus ATC (RADAR)
05:44AM -17.2930 144.8430 55° Northeast 439 505 25,000 -2,400 Level FlightAware
05:45AM -17.2500 144.9064 55° Northeast 429 494 23,600 -2,700 Descending Aus ATC (RADAR)
05:45AM -17.2370 144.9270 55° Northeast 433 498 23,000 -2,640 Descending FlightAware
05:46AM -17.1910 144.9970 55° Northeast 419 482 21,300 -2,580 Descending FlightAware
05:46AM -17.1540 145.0530 55° Northeast 405 466 19,800 -2,520 Descending FlightAware
05:47AM -17.1070 145.1240 55° Northeast 396 456 18,000 -2,520 Descending FlightAware
05:48AM -17.0650 145.1880 56° Northeast 394 453 16,300 -2,640 Descending FlightAware
05:48AM -17.0180 145.2430 56° Northeast 380 437 14,500 -2,760 Descending FlightAware
05:48AM -17.0143 145.2464 56° Northeast 375 432 14,400 -3,300 Descending Aus ATC (RADAR)
05:49AM -16.9685 145.2889 56° Northeast 369 425 12,500 -3,360 Descending Aus ATC (RADAR)
05:49AM -16.9650 145.2920 56° Northeast 377 434 12,300 -1,800 Descending FlightAware
05:50AM -16.9100 145.3430 42° Northeast 339 390 11,000 -1,320 Descending FlightAware
05:50AM -16.8640 145.3850 41° Northeast 302 348 10,500 -960 Descending FlightAware
05:51AM -16.8410 145.4060 41° Northeast 300 345 10,000 -1,500 Descending FlightAware
05:51AM -16.8020 145.4420 41° Northeast 291 335 9,000 -1,740 Descending FlightAware
05:52AM -16.7770 145.4640 40° Northeast 286 329 8,300 -1,560 Descending FlightAware
05:52AM -16.7490 145.4900 42° Northeast 279 321 7,600 -1,560 Descending FlightAware
05:53AM -16.7300 145.5080 42° Northeast 276 318 7,000 -1,620 Descending FlightAware
05:53AM -16.7050 145.5310 41° Northeast 257 296 6,400 -1,320 Descending FlightAware
05:53AM -16.6780 145.5540 39° Northeast 253 291 5,800 -900 Descending FlightAware
05:54AM -16.6518 145.5823 39° Northeast 251 289 5,500  Descending Aus ATC (RADAR)
05:54AM -16.6530 145.5760 39° Northeast 254 292 5,800 -1,200 Climbing FlightAware
05:54AM -16.6470 145.5900 66° East 253 291 5,300 -1,860 Descending FlightAware
05:54AM -16.6370 145.6070 58° Northeast 251 289 5,100 -1,020 Descending FlightAware
05:55AM -16.6350 145.6170 78° East 250 288 4,900 -1,440 Descending FlightAware
05:55AM -16.6400 145.6380 104° East 246 283 4,400 -1,440 Descending FlightAware
05:55AM -16.6500 145.6470 139° Southeast 252 290 4,200 -900 Descending FlightAware
05:56AM -16.6820 145.6610 157° South 222 255 3,800 -1,020 Descending FlightAware
05:56AM -16.7070 145.6710 159° South 213 245 3,300 -1,320 Descending FlightAware
05:56AM -16.7290 145.6820 154° Southeast 215 247 2,700 -1,080 Descending FlightAware
05:57AM -16.7510 145.6920 154° Southeast 182 209 2,400 -600 Descending FlightAware
05:57AM -16.7570 145.6942 154° Southeast 204 235 2,400 -1,020 Level Aus ATC (RADAR)
05:57AM -16.7720 145.7010 158° South 145 167 1,900 -960 Descending FlightAware
05:58AM -16.7870 145.7080 156° South 126 145 1,600 -660 Descending FlightAware
05:58AM -16.8020 145.7150 156° South 126 145 1,300 -600 Descending FlightAware
05:59AM -16.8190 145.7220 158° South 125 144 1,000 -660 Descending FlightAware
05:59AM -16.8320 145.7280 156° South 123 142 700 -780 Descending FlightAware
06:00AM -16.8500 145.7360 157° South 122 140 300 -720 Descending FlightAware
06:00AM -16.8630 145.7420 156° South 124 143 100 -540 Descending FlightAware
06:03AM -16.8860 145.7553 163° South  Level FlightAware Approximate
06:04AM -16.8858 145.7553 163° South  Level Estimated
06:05AM -16.8860 145.7553 163° South  Level FlightAware Approximate
06:06AM -16.8858 145.7553 163° South  Level Estimated
06:07AM -16.8860 145.7553 163° South  Level FlightAware Approximate